sensor_id;sensor_type;location;lat;lon;timestamp;temperature;humidity
28297;DHT22;62078;49.366;8.172;2022-09-09T07:00:00;24.50;53.30
28297;DHT22;62078;49.366;8.172;2022-09-09T07:02:26;22.20;60.80
28297;DHT22;62078;49.366;8.172;2022-09-09T07:04:52;22.10;60.60
28297;DHT22;62078;49.366;8.172;2022-09-09T07:07:17;22.00;60.60
28297;DHT22;62078;49.366;8.172;2022-09-09T07:09:43;22.00;61.10
28297;DHT22;62078;49.366;8.172;2022-09-09T07:12:12;22.00;60.70
28297;DHT22;62078;49.366;8.172;2022-09-09T07:14:38;21.90;61.10
28297;DHT22;62078;49.366;8.172;2022-09-09T07:17:04;21.90;61.50
28297;DHT22;62078;49.366;8.172;2022-09-09T07:19:30;21.80;62.00
28297;DHT22;62078;49.366;8.172;2022-09-09T07:21:56;21.90;62.00
28297;DHT22;62078;49.366;8.172;2022-09-09T07:24:22;21.80;62.20
28297;DHT22;62078;49.366;8.172;2022-09-09T07:26:48;21.80;62.40
28297;DHT22;62078;49.366;8.172;2022-09-09T07:29:14;21.80;63.40
28297;DHT22;62078;49.366;8.172;2022-09-09T07:31:40;21.80;62.60
28297;DHT22;62078;49.366;8.172;2022-09-09T07:34:06;21.80;62.70
28297;DHT22;62078;49.366;8.172;2022-09-09T07:36:35;21.90;62.20
28297;DHT22;62078;49.366;8.172;2022-09-09T07:39:05;22.00;61.80
28297;DHT22;62078;49.366;8.172;2022-09-09T07:41:45;22.10;61.40
28297;DHT22;62078;49.366;8.172;2022-09-09T07:44:13;22.20;61.30
28297;DHT22;62078;49.366;8.172;2022-09-09T07:46:40;22.20;61.20
28297;DHT22;62078;49.366;8.172;2022-09-09T07:49:06;22.20;61.00
28297;DHT22;62078;49.366;8.172;2022-09-09T07:51:35;22.30;61.10
28297;DHT22;62078;49.366;8.172;2022-09-09T07:54:04;22.30;61.10
28297;DHT22;62078;49.366;8.172;2022-09-09T07:56:31;22.30;61.20
28297;DHT22;62078;49.366;8.172;2022-09-09T07:58:57;22.20;61.30
28297;DHT22;62078;49.366;8.172;2022-09-09T08:01:30;22.20;61.50
28297;DHT22;62078;49.366;8.172;2022-09-09T08:04:01;22.20;61.70
28297;DHT22;62078;49.366;8.172;2022-09-09T08:06:30;22.20;61.70
28297;DHT22;62078;49.366;8.172;2022-09-09T08:08:56;22.30;61.70
28297;DHT22;62078;49.366;8.172;2022-09-09T08:11:24;22.30;61.60
28297;DHT22;62078;49.366;8.172;2022-09-09T08:13:51;22.30;61.50
28297;DHT22;62078;49.366;8.172;2022-09-09T08:16:29;22.40;61.50
28297;DHT22;62078;49.366;8.172;2022-09-09T08:18:56;22.40;61.50
28297;DHT22;62078;49.366;8.172;2022-09-09T08:21:28;22.60;61.40
28297;DHT22;62078;49.366;8.172;2022-09-09T08:23:55;22.80;61.00
28297;DHT22;62078;49.366;8.172;2022-09-09T08:26:24;22.90;60.30
28297;DHT22;62078;49.366;8.172;2022-09-09T08:28:52;23.10;59.60
28297;DHT22;62078;49.366;8.172;2022-09-09T08:31:25;23.10;59.50
28297;DHT22;62078;49.366;8.172;2022-09-09T08:33:54;23.20;59.40
28297;DHT22;62078;49.366;8.172;2022-09-09T08:36:23;23.20;59.30
28297;DHT22;62078;49.366;8.172;2022-09-09T08:38:50;23.30;59.50
28297;DHT22;62078;49.366;8.172;2022-09-09T08:44:23;23.20;59.50
28297;DHT22;62078;49.366;8.172;2022-09-09T08:52:31;23.20;59.70
28297;DHT22;62078;49.366;8.172;2022-09-09T08:57:39;23.20;59.50
28297;DHT22;62078;49.366;8.172;2022-09-09T09:00:13;23.10;59.60
28297;DHT22;62078;49.366;8.172;2022-09-09T09:03:16;23.10;59.60
28297;DHT22;62078;49.366;8.172;2022-09-09T09:05:59;23.10;59.70
28297;DHT22;62078;49.366;8.172;2022-09-09T09:11:04;23.10;59.70
28297;DHT22;62078;49.366;8.172;2022-09-09T09:13:43;23.10;59.80
28297;DHT22;62078;49.366;8.172;2022-09-09T09:18:53;23.00;60.00
28297;DHT22;62078;49.366;8.172;2022-09-09T09:21:36;23.00;60.40
28297;DHT22;62078;49.366;8.172;2022-09-09T09:24:07;22.90;60.10
28297;DHT22;62078;49.366;8.172;2022-09-09T09:26:37;22.90;59.70
28297;DHT22;62078;49.366;8.172;2022-09-09T09:29:29;22.80;59.30
28297;DHT22;62078;49.366;8.172;2022-09-09T09:31:58;22.90;59.00
28297;DHT22;62078;49.366;8.172;2022-09-09T09:34:27;22.90;59.10
28297;DHT22;62078;49.366;8.172;2022-09-09T09:36:56;22.90;59.00
28297;DHT22;62078;49.366;8.172;2022-09-09T09:39:27;22.90;59.10
28297;DHT22;62078;49.366;8.172;2022-09-09T09:41:54;22.90;59.20
28297;DHT22;62078;49.366;8.172;2022-09-09T09:44:31;23.00;59.80
28297;DHT22;62078;49.366;8.172;2022-09-09T09:47:18;23.00;59.40
28297;DHT22;62078;49.366;8.172;2022-09-09T09:50:00;23.00;59.70
28297;DHT22;62078;49.366;8.172;2022-09-09T09:52:29;23.00;60.00
28297;DHT22;62078;49.366;8.172;2022-09-09T09:54:57;23.10;60.30
28297;DHT22;62078;49.366;8.172;2022-09-09T09:57:28;23.20;60.10
28297;DHT22;62078;49.366;8.172;2022-09-09T10:02:39;23.20;60.00
28297;DHT22;62078;49.366;8.172;2022-09-09T10:05:26;23.20;59.80
28297;DHT22;62078;49.366;8.172;2022-09-09T10:08:04;23.20;59.50
28297;DHT22;62078;49.366;8.172;2022-09-09T10:13:28;23.20;59.30
28297;DHT22;62078;49.366;8.172;2022-09-09T10:24:48;23.30;58.40
28297;DHT22;62078;49.366;8.172;2022-09-09T10:35:44;23.30;57.90
28297;DHT22;62078;49.366;8.172;2022-09-09T10:38:18;23.30;57.60
28297;DHT22;62078;49.366;8.172;2022-09-09T10:41:00;23.20;57.30
28297;DHT22;62078;49.366;8.172;2022-09-09T10:51:41;23.20;56.60
28297;DHT22;62078;49.366;8.172;2022-09-09T10:54:21;23.20;56.40
28297;DHT22;62078;49.366;8.172;2022-09-09T10:56:54;23.20;56.10
28297;DHT22;62078;49.366;8.172;2022-09-09T10:59:35;23.20;56.10
28297;DHT22;62078;49.366;8.172;2022-09-09T11:04:42;23.30;55.80
28297;DHT22;62078;49.366;8.172;2022-09-09T11:07:14;23.30;55.80
28297;DHT22;62078;49.366;8.172;2022-09-09T11:09:47;23.20;55.70
28297;DHT22;62078;49.366;8.172;2022-09-09T11:12:18;23.20;55.70
28297;DHT22;62078;49.366;8.172;2022-09-09T11:15:01;23.30;55.80
28297;DHT22;62078;49.366;8.172;2022-09-09T11:17:41;23.20;55.40
28297;DHT22;62078;49.366;8.172;2022-09-09T11:20:13;23.20;55.20
28297;DHT22;62078;49.366;8.172;2022-09-09T11:25:17;23.30;55.00
28297;DHT22;62078;49.366;8.172;2022-09-09T11:38:29;23.40;55.30
28297;DHT22;62078;49.366;8.172;2022-09-09T11:41:08;23.40;55.30
28297;DHT22;62078;49.366;8.172;2022-09-09T11:46:04;23.30;54.90
28297;DHT22;62078;49.366;8.172;2022-09-09T11:48:34;23.30;55.00
28297;DHT22;62078;49.366;8.172;2022-09-09T11:51:05;23.30;54.70
28297;DHT22;62078;49.366;8.172;2022-09-09T11:53:34;23.30;55.40
28297;DHT22;62078;49.366;8.172;2022-09-09T11:56:10;23.30;56.00
28297;DHT22;62078;49.366;8.172;2022-09-09T11:58:44;23.30;56.80
28297;DHT22;62078;49.366;8.172;2022-09-09T12:04:17;23.30;58.30
28297;DHT22;62078;49.366;8.172;2022-09-09T12:06:53;23.20;58.50
28297;DHT22;62078;49.366;8.172;2022-09-09T12:12:28;23.30;60.30
28297;DHT22;62078;49.366;8.172;2022-09-09T12:14:57;23.30;60.70
28297;DHT22;62078;49.366;8.172;2022-09-09T12:17:27;23.30;60.80
28297;DHT22;62078;49.366;8.172;2022-09-09T12:20:22;23.30;61.10
28297;DHT22;62078;49.366;8.172;2022-09-09T12:23:13;23.30;61.40
28297;DHT22;62078;49.366;8.172;2022-09-09T12:34:33;23.30;62.20
28297;DHT22;62078;49.366;8.172;2022-09-09T12:37:03;23.30;62.10
28297;DHT22;62078;49.366;8.172;2022-09-09T12:39:37;23.30;62.20
28297;DHT22;62078;49.366;8.172;2022-09-09T12:42:17;23.20;62.00
28297;DHT22;62078;49.366;8.172;2022-09-09T12:45:02;23.20;61.50
28297;DHT22;62078;49.366;8.172;2022-09-09T12:47:38;23.20;61.50
28297;DHT22;62078;49.366;8.172;2022-09-09T12:50:16;23.20;61.20
28297;DHT22;62078;49.366;8.172;2022-09-09T12:52:43;23.20;61.20
28297;DHT22;62078;49.366;8.172;2022-09-09T12:55:18;23.20;61.20
28297;DHT22;62078;49.366;8.172;2022-09-09T12:57:44;23.20;61.20
28297;DHT22;62078;49.366;8.172;2022-09-09T13:00:19;23.20;61.30
28297;DHT22;62078;49.366;8.172;2022-09-09T13:03:00;23.20;61.60
28297;DHT22;62078;49.366;8.172;2022-09-09T13:05:28;23.20;61.40
28297;DHT22;62078;49.366;8.172;2022-09-09T13:08:02;23.30;61.10
28297;DHT22;62078;49.366;8.172;2022-09-09T13:10:31;23.30;60.80
28297;DHT22;62078;49.366;8.172;2022-09-09T13:12:59;23.30;60.70
28297;DHT22;62078;49.366;8.172;2022-09-09T13:15:28;23.30;60.40
28297;DHT22;62078;49.366;8.172;2022-09-09T13:18:00;23.30;60.00
28297;DHT22;62078;49.366;8.172;2022-09-09T13:20:28;23.30;60.00
28297;DHT22;62078;49.366;8.172;2022-09-09T13:22:55;23.40;59.80
28297;DHT22;62078;49.366;8.172;2022-09-09T13:25:27;23.30;59.50
28297;DHT22;62078;49.366;8.172;2022-09-09T13:28:04;23.40;59.40
28297;DHT22;62078;49.366;8.172;2022-09-09T13:30:32;23.30;59.00
28297;DHT22;62078;49.366;8.172;2022-09-09T13:35:48;23.30;58.90
28297;DHT22;62078;49.366;8.172;2022-09-09T13:38:15;23.30;59.00
28297;DHT22;62078;49.366;8.172;2022-09-09T13:41:04;23.30;58.80
28297;DHT22;62078;49.366;8.172;2022-09-09T13:43:36;23.30;58.60
28297;DHT22;62078;49.366;8.172;2022-09-09T13:46:06;23.30;58.20
28297;DHT22;62078;49.366;8.172;2022-09-09T13:48:58;23.20;57.90
28297;DHT22;62078;49.366;8.172;2022-09-09T13:51:45;23.30;57.60
28297;DHT22;62078;49.366;8.172;2022-09-09T13:54:14;23.30;57.50
28297;DHT22;62078;49.366;8.172;2022-09-09T13:56:41;23.30;56.80
28297;DHT22;62078;49.366;8.172;2022-09-09T13:59:19;23.30;56.60
28297;DHT22;62078;49.366;8.172;2022-09-09T14:01:50;23.30;56.30
28297;DHT22;62078;49.366;8.172;2022-09-09T14:04:19;23.30;56.40
28297;DHT22;62078;49.366;8.172;2022-09-09T14:06:47;23.30;56.70
28297;DHT22;62078;49.366;8.172;2022-09-09T14:09:15;23.30;56.20
28297;DHT22;62078;49.366;8.172;2022-09-09T14:11:42;23.30;55.80
28297;DHT22;62078;49.366;8.172;2022-09-09T14:14:08;23.20;55.60
28297;DHT22;62078;49.366;8.172;2022-09-09T14:16:34;23.30;55.40
28297;DHT22;62078;49.366;8.172;2022-09-09T14:19:01;23.20;55.30
28297;DHT22;62078;49.366;8.172;2022-09-09T14:21:27;23.20;55.20
28297;DHT22;62078;49.366;8.172;2022-09-09T14:23:53;23.20;55.30
28297;DHT22;62078;49.366;8.172;2022-09-09T14:26:23;23.20;55.30
28297;DHT22;62078;49.366;8.172;2022-09-09T14:28:49;23.20;55.90
28297;DHT22;62078;49.366;8.172;2022-09-09T14:31:15;23.20;55.30
28297;DHT22;62078;49.366;8.172;2022-09-09T14:33:43;23.20;55.20
28297;DHT22;62078;49.366;8.172;2022-09-09T14:36:10;23.20;55.20
28297;DHT22;62078;49.366;8.172;2022-09-09T14:38:37;23.20;55.30
28297;DHT22;62078;49.366;8.172;2022-09-09T14:41:06;23.20;55.90
28297;DHT22;62078;49.366;8.172;2022-09-09T14:43:32;23.10;56.20
28297;DHT22;62078;49.366;8.172;2022-09-09T14:46:12;23.10;56.70
28297;DHT22;62078;49.366;8.172;2022-09-09T14:48:38;23.10;56.80
28297;DHT22;62078;49.366;8.172;2022-09-09T14:51:15;23.00;56.90
28297;DHT22;62078;49.366;8.172;2022-09-09T14:53:42;23.00;56.80
28297;DHT22;62078;49.366;8.172;2022-09-09T14:56:11;23.00;57.00
28297;DHT22;62078;49.366;8.172;2022-09-09T14:58:37;23.00;57.10
28297;DHT22;62078;49.366;8.172;2022-09-09T15:01:12;23.00;57.10
28297;DHT22;62078;49.366;8.172;2022-09-09T15:03:39;23.00;57.20
28297;DHT22;62078;49.366;8.172;2022-09-09T15:06:11;23.10;57.30
28297;DHT22;62078;49.366;8.172;2022-09-09T15:08:39;23.00;57.20
28297;DHT22;62078;49.366;8.172;2022-09-09T15:11:06;23.10;57.30
28297;DHT22;62078;49.366;8.172;2022-09-09T15:13:33;23.10;57.40
28297;DHT22;62078;49.366;8.172;2022-09-09T15:16:07;23.10;57.30
28297;DHT22;62078;49.366;8.172;2022-09-09T15:18:33;23.10;57.30
28297;DHT22;62078;49.366;8.172;2022-09-09T15:20:59;23.10;57.30
28297;DHT22;62078;49.366;8.172;2022-09-09T15:23:27;23.10;57.30
28297;DHT22;62078;49.366;8.172;2022-09-09T15:25:53;23.10;57.20
28297;DHT22;62078;49.366;8.172;2022-09-09T15:28:21;23.10;57.30
28297;DHT22;62078;49.366;8.172;2022-09-09T15:30:48;23.10;57.20
28297;DHT22;62078;49.366;8.172;2022-09-09T15:33:14;23.10;57.20
28297;DHT22;62078;49.366;8.172;2022-09-09T15:35:40;23.10;57.10
28297;DHT22;62078;49.366;8.172;2022-09-09T15:38:06;23.10;57.00
28297;DHT22;62078;49.366;8.172;2022-09-09T15:40:32;23.10;57.00
28297;DHT22;62078;49.366;8.172;2022-09-09T15:42:58;23.10;57.10
28297;DHT22;62078;49.366;8.172;2022-09-09T15:45:24;23.20;57.60
28297;DHT22;62078;49.366;8.172;2022-09-09T15:47:50;23.20;56.90
28297;DHT22;62078;49.366;8.172;2022-09-09T15:50:16;23.20;56.80
28297;DHT22;62078;49.366;8.172;2022-09-09T15:52:42;23.20;56.80
28297;DHT22;62078;49.366;8.172;2022-09-09T15:55:08;23.20;56.80
28297;DHT22;62078;49.366;8.172;2022-09-09T15:57:34;23.20;56.80
28297;DHT22;62078;49.366;8.172;2022-09-09T16:00:01;23.20;56.80
28297;DHT22;62078;49.366;8.172;2022-09-09T16:02:27;23.20;56.80
28297;DHT22;62078;49.366;8.172;2022-09-09T16:04:53;23.20;57.10
28297;DHT22;62078;49.366;8.172;2022-09-09T16:07:18;23.20;57.10
28297;DHT22;62078;49.366;8.172;2022-09-09T16:09:44;23.20;57.00
28297;DHT22;62078;49.366;8.172;2022-09-09T16:12:10;23.20;57.00
28297;DHT22;62078;49.366;8.172;2022-09-09T16:14:38;23.20;57.10
28297;DHT22;62078;49.366;8.172;2022-09-09T16:17:05;23.10;57.10
28297;DHT22;62078;49.366;8.172;2022-09-09T16:19:32;23.10;57.00
28297;DHT22;62078;49.366;8.172;2022-09-09T16:21:58;23.10;57.00
28297;DHT22;62078;49.366;8.172;2022-09-09T16:24:24;23.10;57.00
28297;DHT22;62078;49.366;8.172;2022-09-09T16:26:51;23.10;57.70
28297;DHT22;62078;49.366;8.172;2022-09-09T16:29:18;23.10;57.20
28297;DHT22;62078;49.366;8.172;2022-09-09T16:31:45;23.10;57.10
28297;DHT22;62078;49.366;8.172;2022-09-09T16:34:12;23.10;57.10
28297;DHT22;62078;49.366;8.172;2022-09-09T16:36:40;23.10;57.20
28297;DHT22;62078;49.366;8.172;2022-09-09T16:39:10;23.10;57.30
28297;DHT22;62078;49.366;8.172;2022-09-09T16:41:37;23.10;57.40
28297;DHT22;62078;49.366;8.172;2022-09-09T16:44:06;23.10;57.40
28297;DHT22;62078;49.366;8.172;2022-09-09T16:46:38;23.10;57.60
28297;DHT22;62078;49.366;8.172;2022-09-09T16:49:06;23.10;57.90
28297;DHT22;62078;49.366;8.172;2022-09-09T16:51:46;23.10;57.60
28297;DHT22;62078;49.366;8.172;2022-09-09T16:54:16;23.10;57.70
28297;DHT22;62078;49.366;8.172;2022-09-09T16:56:44;23.10;57.80
28297;DHT22;62078;49.366;8.172;2022-09-09T16:59:21;23.10;57.90
28297;DHT22;62078;49.366;8.172;2022-09-09T17:01:49;23.10;57.90
28297;DHT22;62078;49.366;8.172;2022-09-09T17:04:18;23.00;58.40
28297;DHT22;62078;49.366;8.172;2022-09-09T17:06:50;22.80;59.40
28297;DHT22;62078;49.366;8.172;2022-09-09T17:09:18;22.60;61.10
28297;DHT22;62078;49.366;8.172;2022-09-09T17:11:44;22.50;61.10
28297;DHT22;62078;49.366;8.172;2022-09-09T17:14:14;22.30;61.60
28297;DHT22;62078;49.366;8.172;2022-09-09T17:16:41;22.20;62.20
28297;DHT22;62078;49.366;8.172;2022-09-09T17:19:08;22.20;62.80
28297;DHT22;62078;49.366;8.172;2022-09-09T17:21:35;22.10;63.10
28297;DHT22;62078;49.366;8.172;2022-09-09T17:24:01;22.10;64.00
28297;DHT22;62078;49.366;8.172;2022-09-09T17:26:29;22.00;64.50
28297;DHT22;62078;49.366;8.172;2022-09-09T17:28:57;21.90;65.00
28297;DHT22;62078;49.366;8.172;2022-09-09T17:31:24;21.90;65.70
28297;DHT22;62078;49.366;8.172;2022-09-09T17:33:51;21.80;66.20
28297;DHT22;62078;49.366;8.172;2022-09-09T17:36:24;21.80;66.80
28297;DHT22;62078;49.366;8.172;2022-09-09T17:38:51;21.60;66.50
28297;DHT22;62078;49.366;8.172;2022-09-09T17:41:22;21.50;66.50
28297;DHT22;62078;49.366;8.172;2022-09-09T17:43:49;21.40;66.90
28297;DHT22;62078;49.366;8.172;2022-09-09T17:46:21;21.30;66.40
28297;DHT22;62078;49.366;8.172;2022-09-09T17:48:48;21.20;65.80
28297;DHT22;62078;49.366;8.172;2022-09-09T17:51:20;21.20;62.40
28297;DHT22;62078;49.366;8.172;2022-09-09T17:53:50;21.40;62.40
28297;DHT22;62078;49.366;8.172;2022-09-09T17:56:18;21.60;61.80
28297;DHT22;62078;49.366;8.172;2022-09-09T17:58:48;21.80;61.00
28297;DHT22;62078;49.366;8.172;2022-09-09T18:01:17;22.00;60.40
28297;DHT22;62078;49.366;8.172;2022-09-09T18:03:44;22.10;60.30
28297;DHT22;62078;49.366;8.172;2022-09-09T18:06:16;22.20;59.90
28297;DHT22;62078;49.366;8.172;2022-09-09T18:08:50;22.30;59.80
28297;DHT22;62078;49.366;8.172;2022-09-09T18:11:19;22.40;59.60
28297;DHT22;62078;49.366;8.172;2022-09-09T18:13:50;22.40;59.50
28297;DHT22;62078;49.366;8.172;2022-09-09T18:16:16;22.50;59.30
28297;DHT22;62078;49.366;8.172;2022-09-09T18:18:46;22.50;59.20
28297;DHT22;62078;49.366;8.172;2022-09-09T18:21:13;22.50;59.20
28297;DHT22;62078;49.366;8.172;2022-09-09T18:23:41;22.50;59.10
28297;DHT22;62078;49.366;8.172;2022-09-09T18:26:20;22.50;59.10
28297;DHT22;62078;49.366;8.172;2022-09-09T18:28:53;22.60;59.10
28297;DHT22;62078;49.366;8.172;2022-09-09T18:31:20;22.50;59.20
28297;DHT22;62078;49.366;8.172;2022-09-09T18:33:50;22.60;59.00
28297;DHT22;62078;49.366;8.172;2022-09-09T18:36:23;22.60;59.10
28297;DHT22;62078;49.366;8.172;2022-09-09T18:38:49;22.60;59.00
28297;DHT22;62078;49.366;8.172;2022-09-09T18:41:17;22.70;59.00
28297;DHT22;62078;49.366;8.172;2022-09-09T18:43:46;22.60;58.90
28297;DHT22;62078;49.366;8.172;2022-09-09T18:46:13;22.60;59.40
28297;DHT22;62078;49.366;8.172;2022-09-09T18:48:43;22.60;58.90
28297;DHT22;62078;49.366;8.172;2022-09-09T18:51:15;22.60;59.00
28297;DHT22;62078;49.366;8.172;2022-09-09T18:53:42;22.60;58.90
28297;DHT22;62078;49.366;8.172;2022-09-09T18:56:12;22.60;58.90
28297;DHT22;62078;49.366;8.172;2022-09-09T18:58:38;22.70;58.90
28297;DHT22;62078;49.366;8.172;2022-09-09T19:01:12;22.70;58.90
28297;DHT22;62078;49.366;8.172;2022-09-09T19:03:40;22.70;58.90
28297;DHT22;62078;49.366;8.172;2022-09-09T19:08:36;22.70;58.90
28297;DHT22;62078;49.366;8.172;2022-09-09T19:11:06;22.70;58.90
28297;DHT22;62078;49.366;8.172;2022-09-09T19:13:33;22.70;59.40
28297;DHT22;62078;49.366;8.172;2022-09-09T19:16:04;22.70;58.80
28297;DHT22;62078;49.366;8.172;2022-09-09T19:18:32;22.70;58.80
28297;DHT22;62078;49.366;8.172;2022-09-09T19:21:13;22.70;58.80
28297;DHT22;62078;49.366;8.172;2022-09-09T19:23:42;22.70;58.70
28297;DHT22;62078;49.366;8.172;2022-09-09T19:26:08;22.70;58.60
28297;DHT22;62078;49.366;8.172;2022-09-09T19:28:36;22.70;58.60
28297;DHT22;62078;49.366;8.172;2022-09-09T19:31:05;22.70;58.60
28297;DHT22;62078;49.366;8.172;2022-09-09T19:33:32;22.70;58.60
28297;DHT22;62078;49.366;8.172;2022-09-09T19:35:59;22.70;58.60
28297;DHT22;62078;49.366;8.172;2022-09-09T19:38:27;22.70;58.60
28297;DHT22;62078;49.366;8.172;2022-09-09T19:40:53;22.70;58.60
28297;DHT22;62078;49.366;8.172;2022-09-09T19:43:19;22.70;58.60
28297;DHT22;62078;49.366;8.172;2022-09-09T19:45:56;22.70;58.60
28297;DHT22;62078;49.366;8.172;2022-09-09T19:48:23;22.70;58.60
28297;DHT22;62078;49.366;8.172;2022-09-09T19:50:52;22.70;58.60
28297;DHT22;62078;49.366;8.172;2022-09-09T19:53:19;22.70;58.50
28297;DHT22;62078;49.366;8.172;2022-09-09T19:55:48;22.70;58.50
28297;DHT22;62078;49.366;8.172;2022-09-09T19:58:19;22.70;58.50
28297;DHT22;62078;49.366;8.172;2022-09-09T20:00:45;22.70;58.50
28297;DHT22;62078;49.366;8.172;2022-09-09T20:03:10;22.70;58.50
28297;DHT22;62078;49.366;8.172;2022-09-09T20:05:36;22.70;58.50
28297;DHT22;62078;49.366;8.172;2022-09-09T20:08:02;22.70;58.50
28297;DHT22;62078;49.366;8.172;2022-09-09T20:10:28;22.70;58.50
28297;DHT22;62078;49.366;8.172;2022-09-09T20:12:55;22.80;58.50
28297;DHT22;62078;49.366;8.172;2022-09-09T20:15:21;22.80;58.50
28297;DHT22;62078;49.366;8.172;2022-09-09T20:17:47;22.80;58.50
28297;DHT22;62078;49.366;8.172;2022-09-09T20:20:12;22.80;58.50
28297;DHT22;62078;49.366;8.172;2022-09-09T20:22:38;22.80;58.50
28297;DHT22;62078;49.366;8.172;2022-09-09T20:25:04;22.80;58.50
28297;DHT22;62078;49.366;8.172;2022-09-09T20:27:31;22.80;58.50
28297;DHT22;62078;49.366;8.172;2022-09-09T20:29:57;22.80;58.50
28297;DHT22;62078;49.366;8.172;2022-09-09T20:32:24;22.80;58.50
28297;DHT22;62078;49.366;8.172;2022-09-09T20:34:50;22.70;58.50
28297;DHT22;62078;49.366;8.172;2022-09-09T20:37:16;22.80;58.50
28297;DHT22;62078;49.366;8.172;2022-09-09T20:39:42;22.80;58.50
28297;DHT22;62078;49.366;8.172;2022-09-09T20:42:10;22.80;58.50
28297;DHT22;62078;49.366;8.172;2022-09-09T20:44:37;22.80;58.60
28297;DHT22;62078;49.366;8.172;2022-09-09T20:47:03;22.80;58.60
28297;DHT22;62078;49.366;8.172;2022-09-09T20:49:31;22.80;58.60
28297;DHT22;62078;49.366;8.172;2022-09-09T20:52:00;22.80;58.50
28297;DHT22;62078;49.366;8.172;2022-09-09T20:54:27;22.80;58.50
28297;DHT22;62078;49.366;8.172;2022-09-09T20:56:55;22.80;58.40
28297;DHT22;62078;49.366;8.172;2022-09-09T20:59:23;22.80;58.40
28297;DHT22;62078;49.366;8.172;2022-09-09T21:01:49;22.80;58.40
28297;DHT22;62078;49.366;8.172;2022-09-09T21:04:16;22.80;58.30
28297;DHT22;62078;49.366;8.172;2022-09-09T21:06:43;22.80;58.30
28297;DHT22;62078;49.366;8.172;2022-09-09T21:09:09;22.80;58.20
28297;DHT22;62078;49.366;8.172;2022-09-09T21:11:35;22.80;58.30
28297;DHT22;62078;49.366;8.172;2022-09-09T21:14:02;22.80;58.30
28297;DHT22;62078;49.366;8.172;2022-09-09T21:16:28;22.80;58.30
28297;DHT22;62078;49.366;8.172;2022-09-09T21:18:54;22.80;58.30
28297;DHT22;62078;49.366;8.172;2022-09-09T21:21:20;22.80;58.30
28297;DHT22;62078;49.366;8.172;2022-09-09T21:23:52;22.80;58.30
28297;DHT22;62078;49.366;8.172;2022-09-09T21:26:18;22.80;58.20
28297;DHT22;62078;49.366;8.172;2022-09-09T21:28:44;22.80;58.20
28297;DHT22;62078;49.366;8.172;2022-09-09T21:31:17;22.80;58.20
28297;DHT22;62078;49.366;8.172;2022-09-09T21:33:44;22.80;58.10
28297;DHT22;62078;49.366;8.172;2022-09-09T21:36:11;22.80;58.10
28297;DHT22;62078;49.366;8.172;2022-09-09T21:38:38;22.80;58.10
28297;DHT22;62078;49.366;8.172;2022-09-09T21:41:10;22.80;58.10
28297;DHT22;62078;49.366;8.172;2022-09-09T21:43:37;22.80;58.10
28297;DHT22;62078;49.366;8.172;2022-09-09T21:46:08;22.80;58.10
28297;DHT22;62078;49.366;8.172;2022-09-09T21:48:34;22.80;58.10
28297;DHT22;62078;49.366;8.172;2022-09-09T21:51:05;22.80;58.10
28297;DHT22;62078;49.366;8.172;2022-09-09T21:53:32;22.80;58.00
28297;DHT22;62078;49.366;8.172;2022-09-09T21:56:12;22.80;58.00
28297;DHT22;62078;49.366;8.172;2022-09-09T21:58:38;22.80;58.00
28297;DHT22;62078;49.366;8.172;2022-09-09T22:01:14;22.80;58.00
28297;DHT22;62078;49.366;8.172;2022-09-09T22:03:41;22.80;58.00
28297;DHT22;62078;49.366;8.172;2022-09-09T22:06:08;22.80;58.00
28297;DHT22;62078;49.366;8.172;2022-09-09T22:08:36;22.80;57.90
28297;DHT22;62078;49.366;8.172;2022-09-09T22:11:10;22.80;57.90
28297;DHT22;62078;49.366;8.172;2022-09-09T22:13:37;22.80;57.90
28297;DHT22;62078;49.366;8.172;2022-09-09T22:16:05;22.80;57.80
28297;DHT22;62078;49.366;8.172;2022-09-09T22:18:32;22.80;57.80
28297;DHT22;62078;49.366;8.172;2022-09-09T22:21:04;22.80;57.80
28297;DHT22;62078;49.366;8.172;2022-09-09T22:23:30;22.80;57.70
28297;DHT22;62078;49.366;8.172;2022-09-09T22:25:56;22.80;57.70
28297;DHT22;62078;49.366;8.172;2022-09-09T22:28:22;22.80;57.70
28297;DHT22;62078;49.366;8.172;2022-09-09T22:30:48;22.80;57.70
28297;DHT22;62078;49.366;8.172;2022-09-09T22:33:14;22.80;57.70
28297;DHT22;62078;49.366;8.172;2022-09-09T22:35:41;22.80;57.70
28297;DHT22;62078;49.366;8.172;2022-09-09T22:38:10;22.80;57.70
28297;DHT22;62078;49.366;8.172;2022-09-09T22:40:37;22.80;57.70
28297;DHT22;62078;49.366;8.172;2022-09-09T22:43:05;22.80;57.70
28297;DHT22;62078;49.366;8.172;2022-09-09T22:45:32;22.80;57.70
28297;DHT22;62078;49.366;8.172;2022-09-09T22:47:59;22.80;57.70
28297;DHT22;62078;49.366;8.172;2022-09-09T22:50:25;22.80;57.70
28297;DHT22;62078;49.366;8.172;2022-09-09T22:52:52;22.80;57.70
28297;DHT22;62078;49.366;8.172;2022-09-09T22:55:18;22.80;57.70
28297;DHT22;62078;49.366;8.172;2022-09-09T22:57:44;22.80;57.70
28297;DHT22;62078;49.366;8.172;2022-09-09T23:00:10;22.80;57.70
28297;DHT22;62078;49.366;8.172;2022-09-09T23:02:38;22.80;57.70
28297;DHT22;62078;49.366;8.172;2022-09-09T23:05:05;22.80;57.70
28297;DHT22;62078;49.366;8.172;2022-09-09T23:07:34;22.80;57.70
28297;DHT22;62078;49.366;8.172;2022-09-09T23:10:01;22.80;57.70
28297;DHT22;62078;49.366;8.172;2022-09-09T23:12:27;22.80;57.70
28297;DHT22;62078;49.366;8.172;2022-09-09T23:14:54;22.80;57.70
28297;DHT22;62078;49.366;8.172;2022-09-09T23:17:20;22.80;58.20
28297;DHT22;62078;49.366;8.172;2022-09-09T23:19:47;22.80;57.70
28297;DHT22;62078;49.366;8.172;2022-09-09T23:22:16;22.80;57.70
28297;DHT22;62078;49.366;8.172;2022-09-09T23:24:42;22.80;57.60
28297;DHT22;62078;49.366;8.172;2022-09-09T23:27:08;22.80;57.70
28297;DHT22;62078;49.366;8.172;2022-09-09T23:29:33;22.80;57.60
28297;DHT22;62078;49.366;8.172;2022-09-09T23:31:59;22.80;57.60
28297;DHT22;62078;49.366;8.172;2022-09-09T23:34:25;22.80;57.60
28297;DHT22;62078;49.366;8.172;2022-09-09T23:36:51;22.80;57.70
28297;DHT22;62078;49.366;8.172;2022-09-09T23:39:18;22.80;57.70
28297;DHT22;62078;49.366;8.172;2022-09-09T23:41:43;22.80;57.60
28297;DHT22;62078;49.366;8.172;2022-09-09T23:44:11;22.80;57.60
28297;DHT22;62078;49.366;8.172;2022-09-09T23:46:37;22.70;57.60
28297;DHT22;62078;49.366;8.172;2022-09-09T23:49:03;22.70;57.60
28297;DHT22;62078;49.366;8.172;2022-09-09T23:51:29;22.80;57.60
28297;DHT22;62078;49.366;8.172;2022-09-09T23:53:58;22.70;57.50
28297;DHT22;62078;49.366;8.172;2022-09-09T23:56:33;22.70;57.60
28297;DHT22;62078;49.366;8.172;2022-09-09T23:59:01;22.80;57.60
